Time;durP1;ratioP1;P1;durP2;ratioP2;P2;SDS_P1;SDS_P2;PMS_P1;PMS_P2;Temp;Humidity;BMP_temperature;BMP_pressure;BME280_temperature;BME280_humidity;BME280_pressure;Samples;Min_cycle;Max_cycle;Signal;HPM_P1;HPM_P2
2023/05/02 00:02:03;;;;;;;5.63;5.13;;;14.30;88.90;;;;;;5031818;28;20606;-68
2023/05/02 00:04:28;;;;;;;7.13;5.10;;;14.30;88.90;;;;;;5022164;28;20185;-68
2023/05/02 00:06:54;;;;;;;6.00;5.43;;;14.20;89.20;;;;;;5018474;28;20552;-68
2023/05/02 00:09:20;;;;;;;5.23;4.73;;;14.10;89.20;;;;;;5026285;28;20203;-68
2023/05/02 00:11:46;;;;;;;5.93;5.33;;;14.10;89.70;;;;;;5022464;28;20165;-68
2023/05/02 00:14:11;;;;;;;8.73;5.07;;;14.00;90.00;;;;;;5026202;28;20931;-67
2023/05/02 00:16:37;;;;;;;7.43;5.00;;;13.90;90.10;;;;;;5026220;28;20704;-67
2023/05/02 00:19:03;;;;;;;5.50;4.87;;;13.80;90.20;;;;;;5030667;28;20200;-67
2023/05/02 00:21:28;;;;;;;6.07;5.20;;;13.70;90.80;;;;;;5026245;28;20267;-68
2023/05/02 00:23:55;;;;;;;6.40;4.53;;;13.60;90.80;;;;;;5024497;28;20215;-66
2023/05/02 00:26:22;;;;;;;6.63;4.50;;;13.60;90.90;;;;;;5032598;28;20199;-66
2023/05/02 00:28:47;;;;;;;5.87;4.93;;;13.50;90.90;;;;;;5033841;28;20426;-67
2023/05/02 00:31:13;;;;;;;6.60;4.90;;;13.50;91.20;;;;;;5020579;28;20539;-66
2023/05/02 00:33:39;;;;;;;7.03;4.63;;;13.50;91.30;;;;;;5031886;28;20711;-68
2023/05/02 00:36:13;;;;;;;6.63;4.50;;;13.40;91.40;;;;;;5029935;28;20591;-68
2023/05/02 00:38:38;;;;;;;8.10;4.90;;;13.40;91.50;;;;;;5016654;28;20188;-67
2023/05/02 00:41:05;;;;;;;4.87;4.40;;;13.30;91.80;;;;;;5024651;28;20403;-67
2023/05/02 00:43:30;;;;;;;5.37;4.40;;;13.30;91.70;;;;;;5018639;28;20609;-66
2023/05/02 00:45:56;;;;;;;5.77;4.93;;;13.20;91.90;;;;;;5024181;28;20448;-66
2023/05/02 00:48:22;;;;;;;5.57;3.83;;;13.20;92.10;;;;;;5019692;28;20230;-66
2023/05/02 00:50:47;;;;;;;6.53;4.73;;;13.10;92.30;;;;;;5017551;28;20164;-67
2023/05/02 00:53:13;;;;;;;6.10;4.60;;;13.10;92.40;;;;;;5021050;28;20407;-66
2023/05/02 00:55:39;;;;;;;7.67;4.57;;;13.20;92.40;;;;;;5024736;28;20178;-65
2023/05/02 00:58:16;;;;;;;5.30;4.80;;;13.20;92.20;;;;;;5029098;28;20521;-65
2023/05/02 01:01:03;;;;;;;6.33;5.00;;;13.20;92.10;;;;;;5025448;28;20650;-66
2023/05/02 01:03:41;;;;;;;4.70;4.13;;;13.10;92.50;;;;;;5019955;28;20405;-65
2023/05/02 01:06:30;;;;;;;9.20;4.37;;;13.30;92.60;;;;;;5021715;28;20952;-65
2023/05/02 01:09:12;;;;;;;7.30;5.07;;;13.30;92.70;;;;;;5021916;28;20423;-66
2023/05/02 01:12:03;;;;;;;5.50;4.63;;;13.20;92.80;;;;;;5022662;28;20444;-66
2023/05/02 01:14:32;;;;;;;4.93;4.43;;;13.20;93.20;;;;;;5022648;28;20748;-66
2023/05/02 01:17:03;;;;;;;5.07;4.00;;;13.10;93.50;;;;;;5030637;28;20921;-65
2023/05/02 01:19:34;;;;;;;5.43;4.80;;;13.20;93.90;;;;;;5024903;28;20429;-65
2023/05/02 01:22:03;;;;;;;9.83;4.33;;;13.10;94.00;;;;;;5029307;28;20400;-66
2023/05/02 01:24:36;;;;;;;8.47;4.67;;;13.00;94.40;;;;;;5024926;28;20406;-66
2023/05/02 01:27:31;;;;;;;5.90;4.30;;;13.00;95.00;;;;;;5031007;28;20540;-67
2023/05/02 01:29:57;;;;;;;4.53;4.10;;;13.00;95.20;;;;;;4984962;28;20442;-66
2023/05/02 01:32:23;;;;;;;7.00;5.43;;;13.00;95.70;;;;;;5021463;28;20403;-66
2023/05/02 01:34:52;;;;;;;5.20;4.70;;;13.10;95.90;;;;;;5019960;28;20820;-67
2023/05/02 01:37:18;;;;;;;12.70;6.10;;;13.10;96.00;;;;;;5026922;28;20406;-66
2023/05/02 01:39:48;;;;;;;5.23;4.70;;;13.10;96.30;;;;;;5030846;28;20957;-66
2023/05/02 01:42:14;;;;;;;6.10;4.83;;;13.00;96.40;;;;;;5021022;28;20825;-66
2023/05/02 01:44:41;;;;;;;5.17;4.60;;;13.00;96.60;;;;;;5027493;28;20406;-66
2023/05/02 01:47:08;;;;;;;5.50;5.00;;;13.00;97.00;;;;;;5020104;28;20447;-66
2023/05/02 01:49:35;;;;;;;7.77;4.67;;;12.90;97.10;;;;;;5016364;28;20431;-67
2023/05/02 01:52:10;;;;;;;5.73;4.60;;;12.90;97.30;;;;;;5029020;28;20920;-68
2023/05/02 01:54:36;;;;;;;5.57;4.50;;;12.80;97.70;;;;;;5018443;28;20905;-67
2023/05/02 01:57:05;;;;;;;5.00;4.60;;;12.70;98.00;;;;;;5025996;28;20418;-67
2023/05/02 01:59:33;;;;;;;7.03;5.03;;;12.70;98.30;;;;;;5019755;28;20517;-67
2023/05/02 02:02:01;;;;;;;8.93;3.90;;;12.60;98.50;;;;;;5026652;28;20773;-67
2023/05/02 02:04:28;;;;;;;6.73;3.80;;;12.50;98.90;;;;;;5020687;28;20427;-67
2023/05/02 02:07:06;;;;;;;5.70;4.40;;;12.50;99.30;;;;;;5020208;28;20813;-68
2023/05/02 02:09:32;;;;;;;5.00;4.30;;;12.40;99.40;;;;;;5023994;28;20476;-67
2023/05/02 02:12:09;;;;;;;7.87;4.63;;;12.40;99.80;;;;;;5019733;28;20498;-67
2023/05/02 02:14:42;;;;;;;6.23;4.23;;;12.40;99.90;;;;;;5024077;28;20260;-66
2023/05/02 02:17:15;;;;;;;4.83;4.23;;;12.40;99.90;;;;;;5030529;28;20771;-68
2023/05/02 02:19:41;;;;;;;5.40;3.90;;;12.40;99.90;;;;;;5029551;28;20426;-67
2023/05/02 02:22:08;;;;;;;8.17;4.67;;;12.40;99.90;;;;;;5028584;28;20498;-67
2023/05/02 02:24:36;;;;;;;8.80;4.87;;;12.30;99.90;;;;;;5021248;28;20468;-66
2023/05/02 02:27:02;;;;;;;8.50;4.30;;;12.30;99.90;;;;;;5018626;28;20443;-67
2023/05/02 02:29:28;;;;;;;4.83;4.43;;;12.20;99.90;;;;;;5027268;28;20441;-67
2023/05/02 02:31:54;;;;;;;5.97;4.50;;;12.20;99.90;;;;;;5017986;28;20406;-67
2023/05/02 02:34:20;;;;;;;12.73;5.27;;;12.10;99.90;;;;;;5031778;28;20612;-67
2023/05/02 02:37:13;;;;;;;4.40;3.80;;;12.00;99.90;;;;;;5023084;28;20266;-66
2023/05/02 02:39:54;;;;;;;7.20;4.80;;;11.90;99.90;;;;;;5022537;28;20453;-68
2023/05/02 02:42:35;;;;;;;6.53;4.20;;;11.90;99.90;;;;;;5011251;28;20415;-67
2023/05/02 02:45:25;;;;;;;8.43;4.97;;;11.80;99.90;;;;;;5013291;28;20495;-67
2023/05/02 02:48:18;;;;;;;3.70;3.27;;;11.70;99.90;;;;;;5013262;28;21020;-67
2023/05/02 02:51:11;;;;;;;5.23;4.30;;;11.70;99.90;;;;;;5020551;28;20521;-68
2023/05/02 02:53:49;;;;;;;5.10;4.60;;;11.60;99.90;;;;;;5022382;28;20457;-68
2023/05/02 02:56:19;;;;;;;5.90;4.00;;;11.50;99.90;;;;;;5015711;28;20421;-67
2023/05/02 02:58:59;;;;;;;4.03;3.23;;;11.50;99.90;;;;;;5020110;28;20453;-66
2023/05/02 03:01:29;;;;;;;4.80;4.00;;;11.40;99.90;;;;;;5021963;28;20407;-65
2023/05/02 03:03:56;;;;;;;6.73;3.97;;;11.40;99.90;;;;;;5021111;28;20813;-66
2023/05/02 03:06:23;;;;;;;6.60;4.20;;;11.30;99.90;;;;;;5024746;28;20416;-66
2023/05/02 03:08:49;;;;;;;4.13;3.30;;;11.30;99.90;;;;;;5020412;28;20439;-67
2023/05/02 03:11:15;;;;;;;6.50;3.67;;;11.20;99.90;;;;;;5023275;28;20421;-66
2023/05/02 03:13:41;;;;;;;7.60;4.30;;;11.10;99.90;;;;;;5018597;28;20415;-66
2023/05/02 03:16:35;;;;;;;8.20;4.57;;;11.20;99.90;;;;;;4998063;28;20418;-67
2023/05/02 03:19:05;;;;;;;6.13;3.20;;;11.10;99.90;;;;;;5014249;28;20424;-67
2023/05/02 03:21:31;;;;;;;4.77;3.40;;;11.10;99.90;;;;;;5022409;28;20481;-67
2023/05/02 03:24:01;;;;;;;3.70;2.80;;;11.00;99.90;;;;;;5025481;28;20414;-68
2023/05/02 03:26:27;;;;;;;5.47;3.40;;;10.90;99.90;;;;;;5028555;28;20468;-67
2023/05/02 03:28:54;;;;;;;3.23;2.90;;;10.90;99.90;;;;;;5022690;28;20818;-67
2023/05/02 03:31:20;;;;;;;5.37;3.90;;;10.90;99.90;;;;;;5022817;28;20410;-66
2023/05/02 03:33:46;;;;;;;5.00;3.60;;;10.80;99.90;;;;;;5029310;28;20407;-66
2023/05/02 03:36:12;;;;;;;4.40;3.67;;;10.80;99.90;;;;;;5022812;28;20475;-66
2023/05/02 03:38:37;;;;;;;3.83;3.20;;;10.80;99.90;;;;;;5016991;28;20441;-66
2023/05/02 03:41:03;;;;;;;3.77;3.00;;;10.90;99.90;;;;;;5020252;28;20414;-66
2023/05/02 03:43:29;;;;;;;4.83;3.27;;;10.90;99.90;;;;;;5028038;28;20279;-67
2023/05/02 03:45:55;;;;;;;6.83;3.70;;;10.80;99.90;;;;;;5020864;28;20262;-67
2023/05/02 03:48:21;;;;;;;4.60;3.37;;;10.80;99.90;;;;;;5018427;28;20988;-67
2023/05/02 03:50:46;;;;;;;4.77;4.37;;;10.80;99.90;;;;;;5024150;28;20171;-66
2023/05/02 03:53:12;;;;;;;5.33;3.10;;;10.90;99.90;;;;;;5019506;28;20179;-66
2023/05/02 03:55:39;;;;;;;4.40;4.00;;;10.90;99.90;;;;;;5021622;28;20298;-66
2023/05/02 03:58:05;;;;;;;3.90;3.10;;;10.90;99.90;;;;;;5029528;28;20207;-68
2023/05/02 04:00:31;;;;;;;4.40;3.53;;;10.80;99.90;;;;;;5026660;28;20426;-68
2023/05/02 04:02:57;;;;;;;4.80;3.40;;;10.80;99.90;;;;;;5021518;28;20545;-67
2023/05/02 04:05:22;;;;;;;5.43;3.43;;;10.90;99.90;;;;;;5025550;28;20218;-66
2023/05/02 04:07:48;;;;;;;4.43;3.67;;;10.80;99.90;;;;;;5020658;28;20203;-67
2023/05/02 04:10:16;;;;;;;6.67;4.17;;;10.80;99.90;;;;;;5016143;28;20174;-68
2023/05/02 04:12:42;;;;;;;4.20;3.80;;;10.80;99.90;;;;;;5022433;28;20178;-67
2023/05/02 04:15:09;;;;;;;4.57;4.17;;;10.90;99.90;;;;;;5011372;28;20414;-67
2023/05/02 04:17:35;;;;;;;6.03;4.40;;;10.80;99.90;;;;;;5026438;28;20501;-68
2023/05/02 04:20:00;;;;;;;5.83;4.20;;;10.80;99.90;;;;;;5025384;28;20859;-67
2023/05/02 04:22:26;;;;;;;6.90;3.70;;;10.80;99.90;;;;;;5029255;28;20178;-65
2023/05/02 04:24:52;;;;;;;4.20;3.80;;;10.90;99.90;;;;;;5011389;28;20274;-67
2023/05/02 04:27:18;;;;;;;4.87;4.37;;;10.90;99.90;;;;;;5018238;28;20307;-67
2023/05/02 04:29:47;;;;;;;6.33;3.60;;;10.90;99.90;;;;;;5025890;28;20426;-67
2023/05/02 04:32:13;;;;;;;4.53;3.80;;;11.00;99.90;;;;;;5019435;28;20168;-66
2023/05/02 04:37:07;;;;;;;4.67;3.60;;;11.10;99.90;;;;;;5034710;28;20223;-67
2023/05/02 04:39:33;;;;;;;4.63;3.60;;;11.10;99.90;;;;;;5029163;28;20417;-68
2023/05/02 04:41:59;;;;;;;3.53;3.23;;;11.20;99.90;;;;;;5042852;28;20876;-67
2023/05/02 04:44:24;;;;;;;5.73;3.77;;;11.20;99.90;;;;;;5049961;28;20394;-68
2023/05/02 04:46:50;;;;;;;4.60;3.60;;;11.30;99.90;;;;;;5023938;28;20195;-68
2023/05/02 04:49:16;;;;;;;4.20;3.40;;;11.30;99.90;;;;;;5017363;28;20172;-67
2023/05/02 04:51:42;;;;;;;3.60;3.30;;;11.40;99.90;;;;;;5028014;28;20641;-68
2023/05/02 04:54:07;;;;;;;4.73;3.43;;;11.50;99.90;;;;;;5022236;28;20203;-67
2023/05/02 04:56:33;;;;;;;3.10;2.80;;;11.50;99.90;;;;;;5027219;28;20433;-69
2023/05/02 04:58:59;;;;;;;3.17;2.53;;;11.60;99.90;;;;;;5016518;28;20172;-67
2023/05/02 05:01:26;;;;;;;6.43;3.27;;;11.60;99.90;;;;;;5026126;28;20668;-68
2023/05/02 05:03:53;;;;;;;4.20;3.43;;;11.70;99.90;;;;;;5026886;28;20317;-68
2023/05/02 05:06:18;;;;;;;3.43;3.13;;;11.80;99.90;;;;;;5031897;28;20504;-68
2023/05/02 05:08:44;;;;;;;6.53;3.60;;;11.80;99.90;;;;;;5026988;28;20472;-68
2023/05/02 05:11:10;;;;;;;5.10;3.50;;;12.00;99.90;;;;;;5019932;28;20172;-69
2023/05/02 05:13:36;;;;;;;4.57;3.03;;;12.10;99.90;;;;;;5025503;28;20560;-68
2023/05/02 05:16:02;;;;;;;7.77;3.40;;;12.20;99.90;;;;;;5016439;28;20203;-68
2023/05/02 05:18:28;;;;;;;5.43;4.10;;;12.10;99.90;;;;;;5025553;28;20414;-69
2023/05/02 05:20:54;;;;;;;5.43;3.60;;;12.20;99.90;;;;;;5022033;28;20521;-68
2023/05/02 05:23:19;;;;;;;4.53;3.57;;;12.00;99.90;;;;;;5031503;28;20176;-69
2023/05/02 05:25:45;;;;;;;5.30;3.60;;;12.10;99.90;;;;;;5023461;28;20423;-69
2023/05/02 05:28:11;;;;;;;7.60;3.20;;;12.30;99.90;;;;;;5018290;28;20210;-69
2023/05/02 05:30:37;;;;;;;4.17;3.23;;;12.30;99.90;;;;;;5029464;28;20246;-68
2023/05/02 05:33:03;;;;;;;3.80;3.20;;;12.40;99.90;;;;;;5020469;28;20856;-67
2023/05/02 05:35:28;;;;;;;12.43;3.40;;;12.50;99.90;;;;;;5023569;28;20937;-68
2023/05/02 05:37:54;;;;;;;5.70;3.80;;;12.60;99.90;;;;;;5021589;28;20171;-67
2023/05/02 05:40:20;;;;;;;6.77;3.40;;;13.00;99.90;;;;;;5018047;28;20207;-69
2023/05/02 05:42:45;;;;;;;4.37;2.93;;;12.80;99.90;;;;;;5007867;28;20182;-68
2023/05/02 05:45:11;;;;;;;6.43;3.07;;;13.30;99.90;;;;;;5020505;28;20531;-67
2023/05/02 05:47:37;;;;;;;4.53;3.37;;;13.80;99.90;;;;;;5026070;28;20229;-67
2023/05/02 05:50:03;;;;;;;4.73;3.50;;;14.40;99.90;;;;;;5023155;28;20191;-67
2023/05/02 05:52:28;;;;;;;4.43;3.60;;;14.70;99.90;;;;;;5020725;28;20244;-68
2023/05/02 05:54:55;;;;;;;3.83;3.20;;;14.50;99.90;;;;;;5024084;28;20916;-68
2023/05/02 05:57:21;;;;;;;4.00;3.13;;;15.10;99.90;;;;;;5024918;28;20238;-68
2023/05/02 05:59:47;;;;;;;3.60;3.23;;;14.90;99.90;;;;;;5024265;28;20457;-68
2023/05/02 06:02:14;;;;;;;5.83;4.10;;;15.10;99.90;;;;;;5019650;28;22066;-68
2023/05/02 06:04:40;;;;;;;10.03;6.23;;;15.60;99.90;;;;;;5026357;28;20506;-67
2023/05/02 06:07:05;;;;;;;3.60;3.20;;;16.40;99.90;;;;;;5022864;28;20556;-68
2023/05/02 06:09:31;;;;;;;6.93;4.37;;;15.90;99.90;;;;;;5026073;28;20191;-69
2023/05/02 06:11:56;;;;;;;4.70;3.60;;;16.50;99.90;;;;;;5021107;28;20178;-69
2023/05/02 06:14:23;;;;;;;6.90;4.23;;;16.60;99.90;;;;;;5014760;28;20172;-69
2023/05/02 06:16:48;;;;;;;5.20;3.70;;;16.30;99.90;;;;;;5025176;28;20653;-68
2023/05/02 06:19:14;;;;;;;6.40;4.13;;;15.90;99.90;;;;;;5015289;28;20430;-68
2023/05/02 06:21:40;;;;;;;5.13;4.67;;;16.80;99.90;;;;;;5027141;28;20452;-69
2023/05/02 06:24:05;;;;;;;5.53;3.77;;;17.30;99.90;;;;;;5027819;28;20255;-68
2023/05/02 06:26:31;;;;;;;6.87;4.03;;;18.10;99.90;;;;;;5026186;28;20206;-67
2023/05/02 06:28:57;;;;;;;7.40;5.27;;;18.10;99.90;;;;;;5017792;28;20189;-67
2023/05/02 06:31:23;;;;;;;4.70;4.30;;;18.40;99.90;;;;;;5023981;28;20296;-67
2023/05/02 06:33:48;;;;;;;6.77;5.60;;;18.60;99.90;;;;;;5024142;28;20602;-67
2023/05/02 06:36:14;;;;;;;8.20;5.73;;;18.50;99.90;;;;;;5023209;28;20509;-68
2023/05/02 06:38:39;;;;;;;7.90;5.90;;;18.20;99.90;;;;;;5025582;28;20270;-67
2023/05/02 06:41:05;;;;;;;7.83;4.90;;;18.80;99.90;;;;;;5015127;28;20181;-66
2023/05/02 06:43:31;;;;;;;8.00;6.00;;;18.80;99.90;;;;;;5022461;28;20555;-67
2023/05/02 06:45:57;;;;;;;10.77;6.07;;;18.10;99.90;;;;;;5027168;28;20209;-68
2023/05/02 06:48:23;;;;;;;10.70;5.70;;;18.10;99.90;;;;;;5005843;28;20483;-67
2023/05/02 06:50:50;;;;;;;7.90;5.47;;;19.20;99.90;;;;;;5013684;28;20187;-68
2023/05/02 06:53:16;;;;;;;7.07;5.90;;;19.60;99.90;;;;;;5025335;28;20548;-68
2023/05/02 06:55:43;;;;;;;8.10;5.23;;;19.80;99.90;;;;;;5015832;28;20532;-69
2023/05/02 06:58:09;;;;;;;8.30;6.20;;;20.00;99.90;;;;;;5014563;28;20314;-68
2023/05/02 07:00:34;;;;;;;6.20;5.47;;;20.10;99.90;;;;;;5022573;28;20468;-68
2023/05/02 07:03:00;;;;;;;5.13;4.63;;;19.80;99.90;;;;;;5021800;28;20173;-68
2023/05/02 07:05:25;;;;;;;7.80;5.33;;;19.00;99.90;;;;;;5023093;28;20213;-68
2023/05/02 07:07:51;;;;;;;5.93;5.13;;;19.80;99.90;;;;;;5007788;28;20209;-70
2023/05/02 07:10:17;;;;;;;7.00;5.17;;;19.70;99.90;;;;;;5025597;28;20197;-68
2023/05/02 07:12:42;;;;;;;5.37;4.83;;;19.90;99.90;;;;;;5018527;28;20167;-69
2023/05/02 07:15:09;;;;;;;6.37;4.87;;;20.00;99.90;;;;;;5014489;28;20187;-68
2023/05/02 07:17:34;;;;;;;5.57;5.07;;;19.50;99.90;;;;;;5025668;28;20295;-68
2023/05/02 07:20:00;;;;;;;7.50;5.70;;;19.10;99.90;;;;;;5021478;28;20503;-68
2023/05/02 07:22:25;;;;;;;8.60;5.70;;;18.50;99.90;;;;;;5022740;28;20178;-67
2023/05/02 07:24:59;;;;;;;5.80;5.20;;;18.60;99.90;;;;;;5011131;28;20265;-67
2023/05/02 07:27:25;;;;;;;6.70;5.07;;;18.20;99.90;;;;;;5023800;28;20211;-67
2023/05/02 07:29:50;;;;;;;6.47;4.70;;;18.30;99.90;;;;;;5014240;28;20418;-66
2023/05/02 07:32:16;;;;;;;4.40;4.00;;;19.00;99.90;;;;;;5028693;28;20177;-67
2023/05/02 07:34:42;;;;;;;6.90;5.17;;;18.90;99.90;;;;;;5001620;28;20188;-67
2023/05/02 07:37:08;;;;;;;5.07;4.60;;;18.40;99.90;;;;;;5028131;28;20538;-67
2023/05/02 07:39:34;;;;;;;4.40;4.03;;;17.80;99.90;;;;;;5024695;28;20431;-68
2023/05/02 07:41:59;;;;;;;5.40;4.60;;;17.50;99.90;;;;;;5025097;28;20651;-68
2023/05/02 07:44:25;;;;;;;5.20;4.17;;;17.60;99.90;;;;;;5025439;28;20551;-68
2023/05/02 07:46:51;;;;;;;6.90;5.13;;;17.60;99.90;;;;;;5014659;28;20256;-68
2023/05/02 07:49:18;;;;;;;5.53;4.53;;;17.60;99.90;;;;;;5021633;28;20167;-67
2023/05/02 07:51:44;;;;;;;4.80;4.00;;;17.30;99.90;;;;;;5021192;28;20893;-68
2023/05/02 07:54:21;;;;;;;5.13;4.27;;;17.60;99.90;;;;;;5026830;28;20779;-67
2023/05/02 07:56:47;;;;;;;4.10;3.70;;;17.30;99.90;;;;;;5029813;28;20430;-67
2023/05/02 07:59:13;;;;;;;6.17;5.03;;;17.10;99.90;;;;;;5016914;28;20409;-68
2023/05/02 08:01:40;;;;;;;6.00;4.10;;;16.90;99.90;;;;;;5021042;28;20425;-68
2023/05/02 08:04:06;;;;;;;5.63;3.90;;;16.30;99.90;;;;;;5023878;28;20407;-68
2023/05/02 08:06:32;;;;;;;4.83;3.30;;;16.00;99.90;;;;;;5028594;28;20428;-68
2023/05/02 08:08:57;;;;;;;3.70;2.90;;;16.30;99.90;;;;;;5019345;28;20425;-68
2023/05/02 08:11:24;;;;;;;5.00;3.30;;;16.20;99.90;;;;;;5033966;28;20174;-68
2023/05/02 08:13:53;;;;;;;4.20;2.70;;;15.50;99.90;;;;;;5024173;28;20169;-68
2023/05/02 08:16:19;;;;;;;2.73;2.50;;;15.50;99.90;;;;;;5018322;28;20472;-68
2023/05/02 08:18:45;;;;;;;4.13;3.20;;;15.00;99.90;;;;;;5020415;28;20904;-67
2023/05/02 08:21:11;;;;;;;3.63;2.50;;;15.20;99.90;;;;;;5017270;28;20648;-68
2023/05/02 08:23:37;;;;;;;4.03;3.43;;;15.50;99.90;;;;;;5024813;28;20176;-67
2023/05/02 08:26:03;;;;;;;5.73;4.00;;;15.70;99.90;;;;;;5030229;28;20587;-67
2023/05/02 08:28:29;;;;;;;3.73;3.30;;;15.80;99.90;;;;;;5026788;28;20530;-67
2023/05/02 08:30:55;;;;;;;4.83;3.53;;;15.70;99.90;;;;;;5023006;28;20495;-67
2023/05/02 08:33:21;;;;;;;4.87;4.37;;;15.30;99.90;;;;;;5023055;28;20172;-67
2023/05/02 08:35:47;;;;;;;6.43;4.20;;;15.00;99.90;;;;;;5028055;28;20879;-67
2023/05/02 08:38:13;;;;;;;5.43;4.10;;;14.60;99.90;;;;;;5023434;28;20271;-68
2023/05/02 08:40:38;;;;;;;5.70;4.43;;;14.50;99.90;;;;;;5021433;28;20493;-69
2023/05/02 08:43:04;;;;;;;7.33;4.30;;;14.40;99.90;;;;;;5024138;28;20176;-68
2023/05/02 08:45:41;;;;;;;6.00;4.03;;;14.40;99.90;;;;;;5022036;28;20188;-67
2023/05/02 08:48:09;;;;;;;9.13;5.23;;;14.60;99.90;;;;;;5027278;28;20482;-68
2023/05/02 08:50:45;;;;;;;5.73;3.97;;;14.30;99.90;;;;;;5022993;28;20660;-68
2023/05/02 08:53:13;;;;;;;6.03;4.43;;;14.50;99.90;;;;;;5014758;28;20473;-68
2023/05/02 08:55:40;;;;;;;4.33;3.30;;;14.40;99.90;;;;;;5020269;28;20605;-69
2023/05/02 08:58:07;;;;;;;5.70;4.10;;;14.20;99.90;;;;;;5024374;28;20453;-68
2023/05/02 09:00:39;;;;;;;4.37;3.10;;;14.10;99.90;;;;;;5018803;28;20440;-68
2023/05/02 09:03:30;;;;;;;5.53;3.40;;;14.20;99.90;;;;;;5009033;28;20927;-68
2023/05/02 09:06:01;;;;;;;7.00;4.23;;;14.50;99.90;;;;;;5020276;28;20803;-67
2023/05/02 09:08:27;;;;;;;5.50;3.93;;;14.60;99.90;;;;;;5022424;28;20454;-69
2023/05/02 09:10:53;;;;;;;5.40;3.50;;;15.00;99.90;;;;;;5027190;28;20417;-68
2023/05/02 09:13:41;;;;;;;7.33;3.83;;;15.00;99.90;;;;;;5022950;28;20217;-68
2023/05/02 09:16:15;;;;;;;7.83;3.70;;;14.80;99.90;;;;;;5031653;28;20231;-67
2023/05/02 09:18:42;;;;;;;4.77;4.03;;;14.70;99.90;;;;;;5028760;28;20421;-68
2023/05/02 09:21:11;;;;;;;5.27;4.00;;;14.80;99.90;;;;;;5021244;28;20406;-68
2023/05/02 09:23:48;;;;;;;3.80;3.17;;;15.10;99.90;;;;;;5027668;28;20416;-67
2023/05/02 09:26:18;;;;;;;3.70;2.80;;;15.60;99.90;;;;;;5020465;28;20444;-67
2023/05/02 09:29:03;;;;;;;4.57;4.10;;;15.20;99.90;;;;;;5024136;28;20495;-67
2023/05/02 09:31:40;;;;;;;6.40;4.33;;;15.50;99.90;;;;;;5020512;28;20448;-64
2023/05/02 09:34:14;;;;;;;5.57;3.87;;;15.60;99.90;;;;;;5027063;28;20400;-67
2023/05/02 09:36:45;;;;;;;4.70;3.57;;;15.50;99.90;;;;;;5005060;28;20458;-69
2023/05/02 09:39:16;;;;;;;5.93;3.47;;;15.40;99.90;;;;;;5031125;28;20419;-66
2023/05/02 09:41:45;;;;;;;4.07;3.50;;;15.10;99.90;;;;;;5016024;28;20538;-67
2023/05/02 09:44:13;;;;;;;4.33;3.63;;;15.00;99.90;;;;;;5011364;28;20477;-68
2023/05/02 09:46:40;;;;;;;4.17;3.07;;;14.70;99.90;;;;;;5022432;28;20458;-69
2023/05/02 09:49:07;;;;;;;3.20;2.83;;;14.80;99.90;;;;;;5019739;28;20798;-69
2023/05/02 09:51:33;;;;;;;4.07;3.37;;;14.80;99.90;;;;;;5015225;28;20493;-67
2023/05/02 09:53:58;;;;;;;4.77;3.20;;;15.10;99.90;;;;;;5022773;28;20403;-66
2023/05/02 09:56:24;;;;;;;3.20;2.73;;;15.30;99.90;;;;;;5018043;28;20192;-66
2023/05/02 09:58:50;;;;;;;6.77;3.00;;;15.60;99.90;;;;;;5016583;28;20188;-68
2023/05/02 10:01:16;;;;;;;5.33;3.80;;;15.50;99.90;;;;;;5015998;28;20191;-66
2023/05/02 10:03:46;;;;;;;2.50;2.10;;;15.10;99.90;;;;;;5022852;28;20176;-66
2023/05/02 10:06:12;;;;;;;2.50;2.13;;;15.30;99.90;;;;;;5012592;28;20957;-67
2023/05/02 10:08:38;;;;;;;2.67;2.47;;;16.00;99.90;;;;;;5022894;28;20771;-67
2023/05/02 10:11:07;;;;;;;4.53;2.70;;;15.50;99.90;;;;;;5025332;28;20399;-67
2023/05/02 10:13:33;;;;;;;3.60;2.50;;;15.50;99.90;;;;;;5023177;28;21247;-66
2023/05/02 10:16:03;;;;;;;2.87;2.67;;;15.60;99.90;;;;;;5017931;28;20966;-67
2023/05/02 10:18:57;;;;;;;3.60;2.90;;;15.20;99.90;;;;;;5018686;28;20749;-67
2023/05/02 10:21:26;;;;;;;3.00;2.37;;;14.90;99.90;;;;;;5012128;28;20422;-67
2023/05/02 10:23:53;;;;;;;4.20;2.47;;;15.10;99.90;;;;;;5024833;28;20935;-67
2023/05/02 10:26:22;;;;;;;3.47;2.10;;;15.20;99.90;;;;;;5017959;28;20434;-67
2023/05/02 10:28:49;;;;;;;5.80;2.87;;;15.50;99.90;;;;;;5021989;28;20458;-68
2023/05/02 10:31:16;;;;;;;4.37;2.37;;;15.70;99.90;;;;;;5019193;28;20409;-67
2023/05/02 10:33:42;;;;;;;2.77;2.10;;;16.40;99.90;;;;;;5024031;28;20472;-67
2023/05/02 10:36:09;;;;;;;2.93;2.53;;;16.20;99.90;;;;;;5010697;28;20588;-67
2023/05/02 10:38:36;;;;;;;2.97;2.60;;;16.10;99.90;;;;;;5025259;28;20411;-66
2023/05/02 10:41:12;;;;;;;3.77;2.40;;;15.40;99.90;;;;;;5016421;28;20766;-67
2023/05/02 10:43:38;;;;;;;2.07;1.97;;;14.80;99.90;;;;;;5027092;28;20404;-67
2023/05/02 10:46:33;;;;;;;3.70;2.83;;;14.70;99.90;;;;;;5018812;28;20437;-68
2023/05/02 10:49:12;;;;;;;5.80;2.43;;;14.60;99.90;;;;;;5021286;28;20894;-68
2023/05/02 10:51:40;;;;;;;3.13;2.60;;;14.50;99.90;;;;;;5011241;28;20418;-68
2023/05/02 10:54:24;;;;;;;4.10;2.90;;;14.10;99.90;;;;;;5021768;28;20779;-68
2023/05/02 10:57:04;;;;;;;3.43;3.13;;;14.30;99.90;;;;;;5025526;28;20439;-68
2023/05/02 10:59:38;;;;;;;4.37;2.80;;;13.90;99.90;;;;;;5020388;28;20399;-68
2023/05/02 11:02:24;;;;;;;4.47;3.00;;;13.70;99.90;;;;;;5001177;28;20415;-67
2023/05/02 11:05:06;;;;;;;5.03;3.80;;;13.50;99.90;;;;;;5019722;28;20413;-68
2023/05/02 11:07:36;;;;;;;4.50;3.70;;;13.00;99.90;;;;;;5017698;28;20483;-69
2023/05/02 11:10:23;;;;;;;5.63;4.00;;;12.90;99.90;;;;;;5026031;28;20504;-68
2023/05/02 11:12:53;;;;;;;9.87;4.23;;;13.00;99.90;;;;;;5027558;28;20457;-69
2023/05/02 11:15:32;;;;;;;6.50;3.80;;;12.80;99.90;;;;;;5014725;28;20488;-68
2023/05/02 11:18:01;;;;;;;7.60;4.40;;;12.60;99.90;;;;;;5023443;28;20924;-68
2023/05/02 11:20:28;;;;;;;7.80;4.30;;;12.30;99.90;;;;;;5015425;28;20509;-68
2023/05/02 11:22:55;;;;;;;8.00;4.03;;;12.50;99.90;;;;;;5018621;28;20428;-68
2023/05/02 11:25:28;;;;;;;9.37;5.00;;;12.40;99.90;;;;;;5022256;28;20438;-69
2023/05/02 11:27:55;;;;;;;5.17;3.83;;;12.90;99.90;;;;;;5024144;28;20454;-68
2023/05/02 11:30:40;;;;;;;11.73;5.03;;;12.60;99.90;;;;;;5027248;28;20414;-68
2023/05/02 11:33:05;;;;;;;5.33;3.30;;;12.70;99.90;;;;;;5020978;28;20406;-68
2023/05/02 11:35:34;;;;;;;10.13;3.37;;;12.70;99.90;;;;;;5021985;28;20608;-68
2023/05/02 11:38:09;;;;;;;7.40;4.27;;;12.70;99.90;;;;;;5026485;28;20383;-69
2023/05/02 11:40:35;;;;;;;7.60;4.63;;;12.80;99.90;;;;;;5021922;28;20904;-68
2023/05/02 11:43:12;;;;;;;6.13;3.03;;;13.00;99.90;;;;;;5021734;28;20429;-69
2023/05/02 11:45:43;;;;;;;5.70;2.70;;;13.00;99.90;;;;;;5015701;28;20278;-68
2023/05/02 11:48:11;;;;;;;3.97;2.90;;;13.30;99.90;;;;;;5026128;28;20454;-69
2023/05/02 11:50:43;;;;;;;7.10;2.90;;;13.40;99.90;;;;;;5016877;28;20422;-68
2023/05/02 11:53:14;;;;;;;3.97;2.57;;;13.50;99.90;;;;;;5010741;28;20430;-69
2023/05/02 11:56:03;;;;;;;4.37;2.80;;;13.50;99.90;;;;;;5019924;28;20454;-68
2023/05/02 11:58:32;;;;;;;2.20;1.90;;;13.60;99.90;;;;;;5018880;28;20415;-68
2023/05/02 12:00:58;;;;;;;6.00;2.93;;;13.40;99.90;;;;;;5018558;28;20407;-68
2023/05/02 12:03:29;;;;;;;4.37;2.50;;;13.50;99.90;;;;;;5029357;28;20403;-68
2023/05/02 12:05:57;;;;;;;3.10;2.47;;;13.70;99.90;;;;;;5019425;28;20742;-69
2023/05/02 12:08:25;;;;;;;4.40;2.43;;;13.30;99.90;;;;;;5021282;28;20496;-69
2023/05/02 12:10:51;;;;;;;5.60;2.77;;;13.10;99.90;;;;;;5009345;28;20782;-69
2023/05/02 12:13:18;;;;;;;4.70;2.83;;;13.00;99.90;;;;;;5021740;28;20413;-69
2023/05/02 12:15:44;;;;;;;3.73;3.40;;;13.10;99.90;;;;;;5028751;28;20492;-67
2023/05/02 12:18:10;;;;;;;3.93;2.67;;;13.30;99.90;;;;;;5021643;28;20501;-69
2023/05/02 12:20:37;;;;;;;4.23;2.33;;;13.50;99.90;;;;;;5023225;28;20511;-69
2023/05/02 12:23:05;;;;;;;4.90;2.93;;;13.60;99.90;;;;;;5016702;28;20186;-68
2023/05/02 12:25:31;;;;;;;3.70;2.80;;;13.60;99.90;;;;;;5021442;28;20437;-69
2023/05/02 12:28:01;;;;;;;4.70;2.80;;;13.80;99.90;;;;;;5012967;28;20477;-70
2023/05/02 12:30:28;;;;;;;5.47;2.60;;;14.00;99.90;;;;;;5019815;28;20784;-67
2023/05/02 12:32:58;;;;;;;7.23;3.60;;;14.40;99.90;;;;;;5057659;22;20520;-68
2023/05/02 12:35:24;;;;;;;4.80;2.80;;;14.60;99.90;;;;;;5030818;28;20408;-67
2023/05/02 12:37:50;;;;;;;4.83;2.80;;;14.00;99.90;;;;;;5033217;28;20406;-70
2023/05/02 12:40:16;;;;;;;4.77;2.93;;;14.20;99.90;;;;;;5052821;28;20417;-67
2023/05/02 12:42:42;;;;;;;9.23;3.27;;;13.90;99.90;;;;;;5043361;28;20475;-68
2023/05/02 12:45:17;;;;;;;12.73;3.47;;;13.80;99.90;;;;;;5031552;28;20179;-68
2023/05/02 12:47:45;;;;;;;4.93;3.17;;;14.10;99.90;;;;;;5030391;28;20238;-66
2023/05/02 12:50:11;;;;;;;6.27;2.50;;;14.10;99.90;;;;;;5027615;28;20418;-68
2023/05/02 12:52:50;;;;;;;4.53;2.47;;;14.30;99.90;;;;;;5033837;28;20402;-68
2023/05/02 12:55:23;;;;;;;3.40;2.80;;;14.80;99.90;;;;;;5020764;28;20193;-68
2023/05/02 12:57:50;;;;;;;3.60;2.40;;;14.80;99.90;;;;;;5031184;28;20417;-68